createdAt,value
2023-05-25T00:02:04.655Z,14.00
2023-05-25T00:05:10.940Z,13.90
2023-05-25T00:08:14.308Z,13.90
2023-05-25T00:11:19.509Z,13.80
2023-05-25T00:14:22.902Z,13.80
2023-05-25T00:17:31.923Z,13.70
2023-05-25T00:20:36.718Z,13.70
2023-05-25T00:23:39.983Z,13.70
2023-05-25T00:26:46.177Z,13.60
2023-05-25T00:29:49.966Z,13.60
2023-05-25T00:32:54.037Z,13.50
2023-05-25T00:36:00.176Z,13.50
2023-05-25T00:39:03.496Z,13.40
2023-05-25T00:42:08.148Z,13.40
2023-05-25T00:45:12.582Z,13.30
2023-05-25T00:48:16.666Z,13.30
2023-05-25T00:51:21.409Z,13.30
2023-05-25T00:54:24.688Z,13.30
2023-05-25T00:57:34.269Z,13.40
2023-05-25T01:00:39.868Z,13.60
2023-05-25T01:03:46.743Z,13.30
2023-05-25T01:06:53.435Z,13.30
2023-05-25T01:10:01.620Z,13.40
2023-05-25T01:13:07.839Z,13.40
2023-05-25T01:16:11.756Z,13.40
2023-05-25T01:19:18.811Z,13.50
2023-05-25T01:22:30.154Z,13.50
2023-05-25T01:25:40.077Z,13.40
2023-05-25T01:28:47.834Z,13.50
2023-05-25T01:31:53.066Z,13.40
2023-05-25T01:34:59.202Z,13.50
2023-05-25T01:38:04.107Z,13.40
2023-05-25T01:41:07.418Z,13.50
2023-05-25T01:44:11.048Z,13.50
2023-05-25T01:47:23.004Z,13.50
2023-05-25T01:50:40.609Z,13.50
2023-05-25T01:53:53.739Z,13.50
2023-05-25T01:57:01.369Z,13.50
2023-05-25T02:00:05.840Z,13.40
2023-05-25T02:03:29.548Z,13.40
2023-05-25T02:06:32.846Z,13.40
2023-05-25T02:09:43.537Z,13.40
2023-05-25T02:12:48.241Z,13.40
2023-05-25T02:15:51.681Z,13.40
2023-05-25T02:18:58.054Z,13.40
2023-05-25T02:22:01.338Z,13.30
2023-05-25T02:25:06.635Z,13.30
2023-05-25T02:28:09.955Z,13.40
2023-05-25T02:31:13.257Z,13.30
2023-05-25T02:34:16.590Z,13.30
2023-05-25T02:37:19.995Z,13.30
2023-05-25T02:40:25.953Z,13.20
2023-05-25T02:43:29.890Z,13.20
2023-05-25T02:46:33.828Z,13.20
2023-05-25T02:49:37.799Z,13.20
2023-05-25T02:52:41.120Z,13.20
2023-05-25T02:55:46.370Z,13.20
2023-05-25T02:58:54.552Z,13.20
2023-05-25T03:02:04.333Z,13.30
2023-05-25T03:05:08.812Z,13.30
2023-05-25T03:08:13.062Z,13.30
2023-05-25T03:11:17.854Z,13.40
2023-05-25T03:14:22.141Z,13.30
2023-05-25T03:17:31.748Z,13.40
2023-05-25T03:20:35.263Z,13.40
2023-05-25T03:23:38.660Z,13.40
2023-05-25T03:26:46.184Z,13.40
2023-05-25T03:29:51.206Z,13.40
2023-05-25T03:32:54.541Z,13.40
2023-05-25T03:35:58.261Z,13.40
2023-05-25T03:39:01.587Z,13.40
2023-05-25T03:42:07.558Z,13.50
2023-05-25T03:45:11.935Z,13.50
2023-05-25T03:48:17.321Z,13.50
2023-05-25T03:51:20.971Z,13.60
2023-05-25T03:54:24.271Z,13.60
2023-05-25T03:57:29.166Z,13.70
2023-05-25T04:00:32.496Z,13.60
2023-05-25T04:03:36.289Z,13.60
2023-05-25T04:06:40.225Z,13.60
2023-05-25T04:09:44.052Z,13.60
2023-05-25T04:12:49.047Z,13.40
2023-05-25T04:15:52.896Z,13.40
2023-05-25T04:18:59.566Z,13.30
2023-05-25T04:22:03.022Z,13.40
2023-05-25T04:25:07.476Z,13.50
2023-05-25T04:28:12.679Z,13.50
2023-05-25T04:31:51.638Z,13.40
2023-05-25T04:35:14.956Z,13.30
2023-05-25T04:38:21.555Z,13.30
2023-05-25T04:41:25.898Z,13.40
2023-05-25T04:44:34.559Z,13.30
2023-05-25T04:47:41.316Z,13.40
2023-05-25T04:50:45.285Z,13.50
2023-05-25T04:53:48.840Z,13.50
2023-05-25T04:56:52.396Z,13.50
2023-05-25T04:59:58.291Z,13.50
2023-05-25T05:03:02.093Z,13.40
2023-05-25T05:06:06.584Z,13.50
2023-05-25T05:09:10.295Z,13.60
2023-05-25T05:12:14.387Z,13.70
2023-05-25T05:15:25.113Z,13.70
2023-05-25T05:18:29.389Z,13.60
2023-05-25T05:21:34.125Z,13.60
2023-05-25T05:24:40.821Z,13.70
2023-05-25T05:27:45.508Z,13.70
2023-05-25T05:30:56.162Z,13.70
2023-05-25T05:33:59.724Z,13.80
2023-05-25T05:37:03.193Z,13.80
2023-05-25T05:40:07.889Z,13.80
2023-05-25T05:43:14.215Z,13.80
2023-05-25T05:46:19.052Z,13.80
2023-05-25T05:49:22.586Z,13.90
2023-05-25T05:52:25.918Z,13.90
2023-05-25T05:55:29.281Z,13.80
2023-05-25T05:58:33.336Z,13.70
2023-05-25T06:01:38.588Z,13.90
2023-05-25T06:04:42.414Z,13.90
2023-05-25T06:07:46.154Z,13.80
2023-05-25T06:10:49.834Z,13.70
2023-05-25T06:13:53.059Z,13.80
2023-05-25T06:16:58.066Z,13.80
2023-05-25T06:20:01.815Z,13.80
2023-05-25T06:23:05.374Z,13.90
2023-05-25T06:26:09.441Z,13.90
2023-05-25T06:29:16.123Z,14.00
2023-05-25T06:32:21.790Z,14.20
2023-05-25T06:35:25.329Z,14.20
2023-05-25T06:38:30.056Z,14.20
2023-05-25T06:41:33.934Z,14.20
2023-05-25T06:44:38.973Z,14.20
2023-05-25T06:47:46.514Z,14.20
2023-05-25T06:50:49.974Z,14.10
2023-05-25T06:53:53.270Z,14.10
2023-05-25T06:56:56.789Z,14.10
2023-05-25T07:00:00.053Z,14.30
2023-05-25T07:03:05.013Z,14.50
2023-05-25T07:06:09.079Z,14.80
2023-05-25T07:09:13.605Z,14.80
2023-05-25T07:12:16.811Z,14.60
2023-05-25T07:15:21.792Z,14.60
2023-05-25T07:18:27.332Z,14.60
2023-05-25T07:21:33.684Z,14.80
2023-05-25T07:24:36.965Z,14.80
2023-05-25T07:27:40.322Z,14.60
2023-05-25T07:30:43.672Z,14.50
2023-05-25T07:33:48.440Z,14.60
2023-05-25T07:36:51.774Z,14.70
2023-05-25T07:39:55.125Z,14.80
2023-05-25T07:42:58.607Z,14.80
2023-05-25T07:46:02.414Z,14.90
2023-05-25T07:49:12.133Z,15.00
2023-05-25T07:52:15.491Z,15.00
2023-05-25T07:55:19.197Z,15.10
2023-05-25T07:58:22.671Z,15.50
2023-05-25T08:01:27.046Z,15.80
2023-05-25T08:04:32.345Z,16.00
2023-05-25T08:07:35.841Z,16.30
2023-05-25T08:10:39.206Z,16.40
2023-05-25T08:13:43.005Z,16.60
2023-05-25T08:16:46.349Z,16.30
2023-05-25T08:19:51.349Z,16.60
2023-05-25T08:22:54.845Z,17.10
2023-05-25T08:25:58.908Z,17.80
2023-05-25T08:29:02.493Z,18.20
2023-05-25T08:32:06.180Z,18.30
2023-05-25T08:35:14.170Z,18.30
2023-05-25T08:38:17.636Z,18.40
2023-05-25T08:41:21.413Z,18.40
2023-05-25T08:44:24.938Z,18.20
2023-05-25T08:47:32.650Z,18.50
2023-05-25T08:50:39.414Z,18.60
2023-05-25T08:53:44.526Z,18.80
2023-05-25T08:56:51.719Z,19.20
2023-05-25T09:00:01.771Z,19.50
2023-05-25T09:03:12.146Z,19.30
2023-05-25T09:06:18.213Z,19.20
2023-05-25T09:09:21.632Z,19.20
2023-05-25T09:12:25.340Z,19.30
2023-05-25T09:15:29.330Z,19.20
2023-05-25T09:18:32.673Z,18.70
2023-05-25T09:21:39.587Z,19.40
2023-05-25T09:24:44.141Z,19.80
2023-05-25T09:27:47.656Z,19.90
2023-05-25T09:30:51.808Z,20.10
2023-05-25T09:34:00.325Z,19.90
2023-05-25T09:37:12.926Z,19.50
2023-05-25T09:40:17.604Z,19.20
2023-05-25T09:43:36.276Z,19.40
2023-05-25T09:46:44.873Z,19.10
2023-05-25T09:49:50.609Z,19.40
2023-05-25T09:53:00.992Z,20.10
2023-05-25T09:56:04.515Z,20.70
2023-05-25T09:59:08.116Z,20.80
2023-05-25T10:02:11.431Z,20.00
2023-05-25T10:05:14.767Z,19.90
2023-05-25T10:08:23.420Z,19.60
2023-05-25T10:11:28.369Z,20.00
2023-05-25T10:14:33.115Z,20.00
2023-05-25T10:17:39.341Z,20.00
2023-05-25T10:20:44.059Z,19.90
2023-05-25T10:23:51.999Z,19.90
2023-05-25T10:26:58.037Z,20.50
2023-05-25T10:30:02.949Z,21.20
2023-05-25T10:33:07.363Z,21.70
2023-05-25T10:36:13.451Z,22.00
2023-05-25T10:39:21.074Z,22.40
2023-05-25T10:42:24.787Z,22.50
2023-05-25T10:45:29.063Z,22.60
2023-05-25T10:48:38.799Z,22.20
2023-05-25T10:51:43.826Z,22.90
2023-05-25T10:54:49.969Z,22.90
2023-05-25T10:58:09.032Z,22.60
2023-05-25T11:01:14.079Z,21.90
2023-05-25T11:04:18.261Z,21.50
2023-05-25T11:07:23.386Z,21.30
2023-05-25T11:11:01.555Z,21.00
2023-05-25T11:14:04.882Z,21.30
2023-05-25T11:17:11.563Z,21.30
2023-05-25T11:20:34.147Z,22.00
2023-05-25T11:23:41.025Z,22.00
2023-05-25T11:27:00.940Z,21.90
2023-05-25T11:30:04.548Z,21.60
2023-05-25T11:33:09.044Z,21.90
2023-05-25T11:36:15.418Z,22.80
2023-05-25T11:39:23.497Z,23.50
2023-05-25T11:42:28.625Z,23.50
2023-05-25T11:45:33.415Z,23.60
2023-05-25T11:48:36.784Z,23.60
2023-05-25T11:51:40.184Z,23.20
2023-05-25T11:54:43.896Z,23.20
2023-05-25T11:57:48.806Z,22.50
2023-05-25T12:00:52.781Z,23.40
2023-05-25T12:03:57.004Z,23.80
2023-05-25T12:07:04.366Z,24.40
2023-05-25T12:10:08.830Z,24.10
2023-05-25T12:13:14.648Z,24.00
2023-05-25T12:16:17.988Z,24.90
2023-05-25T12:19:22.309Z,25.90
2023-05-25T12:22:25.590Z,25.30
2023-05-25T12:25:38.748Z,25.50
2023-05-25T12:29:12.011Z,26.30
2023-05-25T12:32:15.567Z,26.60
2023-05-25T12:35:18.790Z,25.50
2023-05-25T12:38:22.863Z,26.00
2023-05-25T12:41:26.358Z,25.50
2023-05-25T12:44:32.377Z,26.10
2023-05-25T12:47:35.866Z,26.50
2023-05-25T12:50:39.413Z,26.10
2023-05-25T12:53:50.286Z,26.00
2023-05-25T12:56:56.711Z,27.00
2023-05-25T13:00:01.402Z,27.40
2023-05-25T13:03:05.365Z,27.10
2023-05-25T13:06:09.051Z,28.00
2023-05-25T13:09:14.826Z,27.50
2023-05-25T13:12:18.302Z,28.10
2023-05-25T13:15:23.199Z,28.10
2023-05-25T13:18:26.583Z,27.60
2023-05-25T13:21:29.965Z,27.40
2023-05-25T13:24:33.581Z,27.80
2023-05-25T13:27:37.747Z,27.40
2023-05-25T13:30:44.226Z,26.50
2023-05-25T13:33:47.688Z,25.60
2023-05-25T13:36:50.993Z,26.10
2023-05-25T13:39:54.350Z,26.60
2023-05-25T13:42:57.582Z,27.40
2023-05-25T13:46:02.457Z,27.10
2023-05-25T13:49:06.449Z,27.50
2023-05-25T13:52:10.286Z,26.70
2023-05-25T13:55:13.656Z,26.90
2023-05-25T13:58:16.951Z,26.50
2023-05-25T14:01:21.941Z,26.80
2023-05-25T14:04:25.640Z,26.70
2023-05-25T14:07:28.896Z,26.60
2023-05-25T14:10:32.239Z,27.00
2023-05-25T14:13:36.945Z,26.50
2023-05-25T14:16:41.944Z,27.00
2023-05-25T14:19:45.338Z,26.90
2023-05-25T14:22:48.694Z,27.20
2023-05-25T14:25:51.972Z,27.20
2023-05-25T14:28:55.743Z,27.00
2023-05-25T14:32:01.197Z,26.80
2023-05-25T14:35:04.766Z,26.90
2023-05-25T14:38:08.165Z,27.00
2023-05-25T14:41:11.532Z,27.00
2023-05-25T14:44:15.510Z,27.80
2023-05-25T14:47:20.978Z,27.80
2023-05-25T14:50:24.316Z,28.20
2023-05-25T14:53:27.686Z,28.50
2023-05-25T14:56:31.000Z,29.20
2023-05-25T14:59:34.440Z,28.50
2023-05-25T15:02:39.209Z,30.10
2023-05-25T15:05:42.886Z,29.80
2023-05-25T15:08:46.274Z,29.30
2023-05-25T15:11:49.566Z,28.70
2023-05-25T15:14:52.890Z,29.00
2023-05-25T15:17:57.650Z,28.90
2023-05-25T15:21:01.516Z,28.60
2023-05-25T15:24:04.855Z,28.50
2023-05-25T15:27:09.155Z,27.60
2023-05-25T15:30:13.102Z,28.10
2023-05-25T15:33:17.752Z,28.30
2023-05-25T15:36:21.167Z,29.20
2023-05-25T15:39:24.397Z,29.10
2023-05-25T15:42:27.643Z,29.60
2023-05-25T15:45:31.128Z,29.20
2023-05-25T15:48:35.964Z,29.50
2023-05-25T15:51:43.859Z,28.80
2023-05-25T15:54:47.165Z,29.00
2023-05-25T15:57:50.434Z,30.10
2023-05-25T16:00:53.731Z,29.60
2023-05-25T16:03:59.174Z,27.50
2023-05-25T16:07:02.822Z,26.70
2023-05-25T16:10:07.362Z,27.60
2023-05-25T16:13:10.739Z,28.20
2023-05-25T16:16:14.150Z,29.30
2023-05-25T16:19:18.914Z,28.40
2023-05-25T16:22:22.283Z,27.40
2023-05-25T16:25:25.618Z,25.60
2023-05-25T16:28:28.932Z,25.00
2023-05-25T16:31:32.336Z,24.70
2023-05-25T16:34:37.024Z,23.90
2023-05-25T16:37:40.289Z,23.20
2023-05-25T16:40:43.634Z,23.20
2023-05-25T16:43:47.039Z,23.20
2023-05-25T16:46:50.828Z,23.10
2023-05-25T16:49:55.798Z,23.10
2023-05-25T16:52:59.099Z,22.70
2023-05-25T16:56:02.599Z,22.50
2023-05-25T16:59:06.766Z,22.50
2023-05-25T17:02:10.085Z,22.40
2023-05-25T17:05:14.841Z,22.20
2023-05-25T17:08:18.270Z,21.90
2023-05-25T17:11:26.221Z,21.90
2023-05-25T17:14:29.727Z,21.70
2023-05-25T17:17:33.136Z,21.70
2023-05-25T17:20:38.245Z,21.60
2023-05-25T17:23:41.654Z,21.20
2023-05-25T17:26:46.487Z,20.80
2023-05-25T17:29:49.834Z,20.80
2023-05-25T17:32:53.842Z,20.60
2023-05-25T17:35:59.667Z,20.40
2023-05-25T17:39:02.967Z,20.30
2023-05-25T17:42:07.568Z,20.20
2023-05-25T17:45:11.969Z,20.00
2023-05-25T17:48:15.413Z,20.00
2023-05-25T17:51:21.709Z,19.80
2023-05-25T17:54:26.002Z,19.50
2023-05-25T17:57:29.366Z,19.60
2023-05-25T18:00:32.885Z,19.60
2023-05-25T18:03:36.596Z,19.40
2023-05-25T18:06:41.726Z,19.20
2023-05-25T18:09:45.064Z,19.10
2023-05-25T18:12:52.095Z,19.00
2023-05-25T18:15:55.876Z,18.80
2023-05-25T18:18:59.290Z,18.60
2023-05-25T18:22:04.364Z,18.50
2023-05-25T18:25:08.537Z,18.40
2023-05-25T18:28:14.796Z,18.20
2023-05-25T18:31:18.399Z,18.00
2023-05-25T18:34:21.936Z,17.80
2023-05-25T18:37:28.988Z,17.70
2023-05-25T18:40:32.649Z,17.60
2023-05-25T18:43:36.323Z,17.40
2023-05-25T18:46:42.353Z,17.30
2023-05-25T18:49:48.582Z,17.30
2023-05-25T18:52:54.013Z,17.10
2023-05-25T18:55:57.756Z,16.50
2023-05-25T18:59:01.342Z,16.90
2023-05-25T19:02:05.009Z,16.80
2023-05-25T19:05:11.550Z,16.60
2023-05-25T19:08:16.840Z,16.50
2023-05-25T19:11:20.897Z,16.50
2023-05-25T19:14:25.065Z,16.40
2023-05-25T19:17:28.902Z,16.40
2023-05-25T19:20:33.686Z,16.40
2023-05-25T19:23:39.043Z,16.60
2023-05-25T19:26:42.566Z,16.60
2023-05-25T19:29:47.198Z,16.70
2023-05-25T19:32:50.732Z,16.90
2023-05-25T19:35:54.307Z,16.90
2023-05-25T19:38:59.424Z,16.90
2023-05-25T19:42:03.287Z,16.80
2023-05-25T19:45:07.696Z,16.70
2023-05-25T19:48:11.418Z,16.60
2023-05-25T19:51:15.230Z,16.50
2023-05-25T19:54:20.356Z,16.40
2023-05-25T19:57:26.168Z,16.30
2023-05-25T20:00:29.775Z,16.20
2023-05-25T20:03:33.498Z,16.10
2023-05-25T20:06:37.613Z,16.10
2023-05-25T20:09:43.026Z,16.00
2023-05-25T20:12:46.512Z,15.90
2023-05-25T20:15:50.234Z,15.80
2023-05-25T20:18:53.937Z,15.80
2023-05-25T20:21:58.113Z,15.70
2023-05-25T20:25:03.236Z,15.60
2023-05-25T20:28:06.898Z,15.60
2023-05-25T20:31:10.587Z,15.60
2023-05-25T20:34:16.678Z,15.60
2023-05-25T20:37:20.177Z,15.60
2023-05-25T20:40:26.730Z,15.50
2023-05-25T20:43:30.382Z,15.30
2023-05-25T20:46:34.204Z,15.20
2023-05-25T20:49:37.709Z,15.10
2023-05-25T20:52:41.707Z,15.00
2023-05-25T20:55:47.326Z,15.00
2023-05-25T20:58:51.195Z,14.90
2023-05-25T21:01:54.969Z,14.80
2023-05-25T21:04:58.451Z,14.70
2023-05-25T21:08:05.953Z,14.70
2023-05-25T21:11:10.914Z,14.70
2023-05-25T21:14:14.210Z,14.70
2023-05-25T21:17:19.618Z,14.70
2023-05-25T21:20:23.167Z,13.50
2023-05-25T21:23:28.586Z,14.70
2023-05-25T21:26:33.349Z,14.70
2023-05-25T21:29:36.786Z,14.80
2023-05-25T21:32:40.180Z,14.80
2023-05-25T21:35:43.840Z,14.80
2023-05-25T21:38:47.434Z,15.00
2023-05-25T21:41:53.740Z,15.10
2023-05-25T21:44:57.096Z,15.20
2023-05-25T21:48:00.492Z,15.20
2023-05-25T21:51:04.120Z,15.10
2023-05-25T21:54:07.698Z,15.10
2023-05-25T21:57:12.636Z,15.00
2023-05-25T22:00:17.706Z,15.10
2023-05-25T22:03:21.521Z,15.10
2023-05-25T22:06:24.960Z,15.10
2023-05-25T22:09:30.195Z,15.20
2023-05-25T22:12:34.978Z,15.30
2023-05-25T22:15:38.302Z,15.30
2023-05-25T22:18:41.621Z,15.30
2023-05-25T22:21:44.904Z,15.30
2023-05-25T22:24:48.327Z,15.40
2023-05-25T22:27:53.146Z,15.40
2023-05-25T22:30:56.457Z,15.40
2023-05-25T22:39:01.846Z,15.30
2023-05-25T22:42:06.656Z,15.50
2023-05-25T22:45:12.179Z,15.50
2023-05-25T22:48:15.604Z,15.40
2023-05-25T22:51:18.897Z,15.40
2023-05-25T22:54:22.122Z,15.40
2023-05-25T22:57:25.459Z,15.40
2023-05-25T23:00:30.279Z,15.40
2023-05-25T23:03:33.736Z,15.20
2023-05-25T23:06:37.196Z,15.10
2023-05-25T23:09:40.532Z,14.90
2023-05-25T23:12:43.789Z,14.70
2023-05-25T23:15:48.644Z,14.60
2023-05-25T23:18:51.877Z,14.50
2023-05-25T23:21:56.479Z,14.50
2023-05-25T23:24:59.769Z,14.50
2023-05-25T23:28:02.976Z,14.40
2023-05-25T23:31:07.806Z,14.30
2023-05-25T23:34:11.038Z,14.20
2023-05-25T23:37:14.366Z,14.30
2023-05-25T23:40:17.696Z,14.50
2023-05-25T23:43:21.169Z,14.50
2023-05-25T23:46:26.171Z,14.50
2023-05-25T23:49:29.600Z,14.50
2023-05-25T23:52:32.902Z,14.50
2023-05-25T23:55:36.258Z,14.60
2023-05-25T23:58:39.528Z,14.60
